Oviedo, Spain
Current Conditions -  °F | °C
As of 3:30 PM on Thursday 18 Dec 2014 (Local Time) from LEAS Reporting Station
Broken Clouds Broken Clouds  
Wind Chill: 54°   Ceiling: 3000
Heat Index: 54°   Visibility: 6mi
Dew Point: 46°   Wind: 8mph
Humidity: 77%   Direction: 300°WNW
Pressure: 30.42"   Gusts: NA
Location:  43.36°N, 5.84°W
Report Text: LEAS 181430Z 30007KT 9999 BKN030 12/08 Q1030 NOSIG
Loading
Personal Weather Stations






























Interactive Weather Map New forecast layout! Learn more

10-Day Weather Forecast

Advertisements
Track Severe Weather on mobile